Time;durP1;ratioP1;P1;durP2;ratioP2;P2;SDS_P1;SDS_P2;PMS_P1;PMS_P2;Temp;Humidity;BMP_temperature;BMP_pressure;BME280_temperature;BME280_humidity;BME280_pressure;Samples;Min_cycle;Max_cycle;Signal;HPM_P1;HPM_P2
2022/01/20 00:02:19;;;;;;;2.00;1.88;;;;;;;1.34;100.00;96423.09;5131980;27;24524;-77
2022/01/20 00:04:51;;;;;;;2.45;2.03;;;;;;;1.38;100.00;96422.16;5131991;27;24833;-77
2022/01/20 00:07:31;;;;;;;3.78;2.10;;;;;;;1.43;100.00;96417.81;5131606;27;25053;-77
2022/01/20 00:26:26;;;;;;;2.00;1.80;;;;;;;1.18;100.00;96409.72;5130101;27;25020;-78
2022/01/20 00:28:56;;;;;;;1.90;1.70;;;;;;;1.26;100.00;96417.25;5131728;27;24428;-77
2022/01/20 00:31:39;;;;;;;1.58;1.48;;;;;;;1.11;100.00;96414.09;5131797;28;24433;-77
2022/01/20 00:34:13;;;;;;;1.42;1.33;;;;;;;1.25;100.00;96421.50;5131515;28;24413;-78
2022/01/20 00:39:22;;;;;;;1.40;1.17;;;;;;;1.11;100.00;96431.06;5122210;27;24452;-78
2022/01/20 00:41:48;;;;;;;2.72;1.70;;;;;;;1.12;100.00;96438.72;5135578;27;25011;-77
2022/01/20 00:44:15;;;;;;;1.65;1.42;;;;;;;1.10;100.00;96440.44;5135909;27;24429;-78
2022/01/20 00:46:41;;;;;;;1.40;1.20;;;;;;;1.11;100.00;96424.28;5135877;27;24428;-77
2022/01/20 00:49:08;;;;;;;1.40;1.30;;;;;;;1.17;100.00;96431.00;5135793;27;24490;-78
2022/01/20 00:51:34;;;;;;;2.60;1.30;;;;;;;1.20;100.00;96443.72;5135639;27;24429;-77
2022/01/20 00:54:02;;;;;;;1.20;1.10;;;;;;;1.17;100.00;96447.13;5135802;27;24431;-77
2022/01/20 00:56:28;;;;;;;1.90;1.40;;;;;;;1.18;100.00;96453.06;5135482;27;24428;-77
2022/01/20 00:58:55;;;;;;;1.10;1.00;;;;;;;1.14;100.00;96461.66;5135492;27;24448;-76
2022/01/20 01:01:23;;;;;;;1.15;1.05;;;;;;;1.24;100.00;96462.38;5135582;27;24428;-77
2022/01/20 01:03:50;;;;;;;0.70;0.70;;;;;;;1.25;100.00;96458.94;5135708;27;24997;-77
2022/01/20 01:06:29;;;;;;;1.00;0.90;;;;;;;1.19;100.00;96460.72;5135091;27;24962;-77
2022/01/20 01:08:56;;;;;;;0.70;0.70;;;;;;;1.27;100.00;96458.06;5135706;27;24413;-77
2022/01/20 01:11:25;;;;;;;0.77;0.77;;;;;;;1.28;100.00;96454.63;5135299;27;24996;-77
2022/01/20 01:13:52;;;;;;;1.00;0.70;;;;;;;1.09;100.00;96468.53;5135421;27;24470;-77
2022/01/20 01:16:21;;;;;;;1.55;1.10;;;;;;;1.18;100.00;96458.19;5135246;27;24895;-77
2022/01/20 01:21:42;;;;;;;1.20;0.80;;;;;;;1.08;100.00;96460.03;5135032;27;24500;-77
2022/01/20 01:24:09;;;;;;;1.23;0.90;;;;;;;1.12;100.00;96460.84;5134914;27;25139;-77
2022/01/20 01:26:37;;;;;;;1.27;1.13;;;;;;;1.12;100.00;96464.22;5135591;27;24461;-78
2022/01/20 01:29:13;;;;;;;0.95;0.85;;;;;;;1.04;100.00;96465.19;5137138;27;24482;-77
2022/01/20 01:31:41;;;;;;;1.13;0.90;;;;;;;1.07;100.00;96467.69;5136741;27;24433;-77
2022/01/20 01:34:10;;;;;;;1.30;0.93;;;;;;;1.11;100.00;96470.22;5136555;27;24478;-77
2022/01/20 01:36:50;;;;;;;1.02;0.93;;;;;;;1.09;100.00;96464.28;5136570;27;24429;-78
2022/01/20 01:39:17;;;;;;;1.27;0.93;;;;;;;1.05;100.00;96464.34;5137011;27;24441;-78
2022/01/20 01:41:46;;;;;;;1.10;0.70;;;;;;;1.02;100.00;96462.66;5136541;27;24965;-77
2022/01/20 01:44:20;;;;;;;0.70;0.70;;;;;;;1.09;100.00;96465.97;5136918;27;24433;-78
2022/01/20 01:46:48;;;;;;;1.08;0.70;;;;;;;1.03;100.00;96456.69;5136709;27;24417;-78
2022/01/20 01:49:16;;;;;;;1.25;0.90;;;;;;;1.02;100.00;96455.03;5136738;27;24999;-78
2022/01/20 01:51:42;;;;;;;0.90;0.80;;;;;;;1.01;100.00;96455.91;5137198;27;24432;-78
2022/01/20 01:54:11;;;;;;;0.85;0.85;;;;;;;1.04;100.00;96460.09;5136327;27;24971;-78
2022/01/20 01:56:38;;;;;;;0.77;0.77;;;;;;;1.01;100.00;96455.91;5136246;27;24433;-78
2022/01/20 01:59:06;;;;;;;2.20;0.80;;;;;;;0.98;100.00;96461.03;5136282;27;24973;-77
2022/01/20 02:01:35;;;;;;;0.80;0.70;;;;;;;1.00;100.00;96463.53;5135331;27;24474;-77
2022/01/20 02:04:12;;;;;;;1.20;0.90;;;;;;;0.94;100.00;96459.41;5134394;27;24473;-77
2022/01/20 02:09:39;;;;;;;0.93;0.80;;;;;;;0.95;100.00;96455.97;5127568;27;24436;-78
2022/01/20 02:17:57;;;;;;;0.90;0.80;;;;;;;1.00;100.00;96461.84;5133770;27;24403;-77
2022/01/20 02:20:26;;;;;;;0.90;0.80;;;;;;;1.08;100.00;96465.16;5134237;27;24455;-76
2022/01/20 02:22:53;;;;;;;0.80;0.70;;;;;;;1.11;100.00;96451.47;5135769;27;24517;-77
2022/01/20 02:25:21;;;;;;;0.70;0.70;;;;;;;1.35;100.00;96451.13;5135259;27;24431;-77
2022/01/20 02:27:48;;;;;;;1.13;0.95;;;;;;;1.10;100.00;96444.69;5135243;27;24424;-77
2022/01/20 02:30:16;;;;;;;1.02;0.93;;;;;;;1.03;100.00;96448.22;5135626;27;24429;-78
2022/01/20 02:32:43;;;;;;;0.70;0.70;;;;;;;0.98;100.00;96460.19;5135847;27;24464;-78
2022/01/20 02:35:11;;;;;;;0.52;0.47;;;;;;;1.06;100.00;96449.00;5135607;27;24413;-77
2022/01/20 02:37:39;;;;;;;0.63;0.43;;;;;;;1.00;100.00;96449.09;5134679;27;24425;-77
2022/01/20 02:44:48;;;;;;;2.63;0.40;;;;;;;0.96;100.00;96450.88;5113532;27;24502;-77
2022/01/20 02:45:45;;;;;;;0.60;0.40;;;;;;;1.00;100.00;96450.78;5112657;28;24488;-77
2022/01/20 02:48:12;;;;;;;0.40;0.30;;;;;;;1.02;100.00;96454.19;5113183;28;24426;-76
2022/01/20 02:50:39;;;;;;;0.30;0.30;;;;;;;1.04;100.00;96450.75;5120840;27;24489;-77
2022/01/20 02:53:06;;;;;;;0.35;0.32;;;;;;;1.05;100.00;96454.13;5133489;27;24428;-77
2022/01/20 02:55:33;;;;;;;0.30;0.25;;;;;;;1.05;100.00;96456.69;5133159;27;24953;-77
2022/01/20 02:57:59;;;;;;;0.40;0.40;;;;;;;1.09;100.00;96460.88;5132833;27;24420;-77
2022/01/20 03:00:27;;;;;;;0.60;0.47;;;;;;;1.12;100.00;96454.03;5133140;27;24852;-77
2022/01/20 03:02:55;;;;;;;0.40;0.38;;;;;;;1.13;100.00;96455.72;5133235;27;24493;-77
2022/01/20 03:05:21;;;;;;;0.50;0.50;;;;;;;1.05;100.00;96460.09;5133185;27;24417;-77
2022/01/20 03:07:48;;;;;;;0.73;0.60;;;;;;;1.02;100.00;96457.56;5132806;27;24470;-77
2022/01/20 03:10:17;;;;;;;0.70;0.70;;;;;;;1.01;100.00;96463.53;5133048;27;24420;-77
2022/01/20 03:12:43;;;;;;;0.88;0.52;;;;;;;1.04;100.00;96467.75;5132750;27;24942;-77
2022/01/20 03:15:10;;;;;;;0.52;0.43;;;;;;;1.04;100.00;96462.63;5133928;27;24421;-78
2022/01/20 03:17:36;;;;;;;1.10;0.60;;;;;;;1.03;100.00;96464.34;5135416;27;24933;-77
2022/01/20 03:20:05;;;;;;;0.98;0.50;;;;;;;1.02;100.00;96462.66;5136559;27;24441;-77
2022/01/20 03:22:31;;;;;;;1.10;0.60;;;;;;;1.04;100.00;96455.84;5136209;27;24428;-77
2022/01/20 03:24:58;;;;;;;0.80;0.60;;;;;;;1.05;100.00;96454.13;5135195;27;24420;-76
2022/01/20 03:27:25;;;;;;;1.05;0.50;;;;;;;1.02;100.00;96455.03;5135218;27;24516;-77
2022/01/20 03:29:52;;;;;;;0.82;0.43;;;;;;;1.02;100.00;96462.66;5134918;27;24954;-77
2022/01/20 03:32:18;;;;;;;0.90;0.43;;;;;;;0.92;100.00;96461.94;5134999;27;24413;-77
2022/01/20 03:34:45;;;;;;;0.85;0.60;;;;;;;0.94;100.00;96462.78;5135387;27;24420;-77
2022/01/20 03:37:11;;;;;;;0.40;0.40;;;;;;;0.90;100.00;96463.69;5134602;27;24422;-78
2022/01/20 03:39:38;;;;;;;0.70;0.50;;;;;;;0.95;100.00;96463.63;5135024;27;24428;-77
2022/01/20 03:42:05;;;;;;;1.70;0.90;;;;;;;0.92;100.00;96458.56;5133921;27;24432;-78
2022/01/20 03:44:32;;;;;;;1.70;0.80;;;;;;;0.93;100.00;96465.38;5132684;27;24420;-77
2022/01/20 03:47:02;;;;;;;1.35;0.80;;;;;;;0.94;100.00;96451.75;5132135;27;24424;-77
2022/01/20 03:49:36;;;;;;;0.70;0.63;;;;;;;0.91;100.00;96449.22;5131942;27;24436;-76
2022/01/20 03:52:03;;;;;;;1.27;0.90;;;;;;;0.94;100.00;96447.47;5131939;27;24966;-77
2022/01/20 03:54:30;;;;;;;0.95;0.80;;;;;;;0.99;100.00;96451.66;5132148;27;24778;-76
2022/01/20 03:56:56;;;;;;;1.33;0.90;;;;;;;0.95;100.00;96450.88;5131818;27;24425;-77
2022/01/20 03:59:24;;;;;;;1.13;0.80;;;;;;;0.94;100.00;96450.03;5131934;27;24420;-77
2022/01/20 04:01:52;;;;;;;1.17;0.85;;;;;;;0.99;100.00;96449.13;5131742;27;24443;-77
2022/01/20 04:04:18;;;;;;;1.00;0.90;;;;;;;1.04;100.00;96458.41;5131635;27;24413;-77
2022/01/20 04:06:45;;;;;;;0.90;0.70;;;;;;;1.01;100.00;96461.00;5132016;27;24486;-77
2022/01/20 04:09:11;;;;;;;1.13;0.75;;;;;;;1.00;100.00;96466.94;5131939;27;24966;-77
2022/01/20 04:11:38;;;;;;;1.13;0.90;;;;;;;1.00;100.00;96473.75;5131339;27;24494;-76
2022/01/20 04:14:04;;;;;;;0.70;0.70;;;;;;;1.02;100.00;96470.31;5131746;27;24969;-76
2022/01/20 04:16:36;;;;;;;1.55;1.10;;;;;;;1.01;100.00;96467.81;5133217;27;24421;-78
2022/01/20 04:19:07;;;;;;;1.60;1.10;;;;;;;1.00;100.00;96464.38;5133506;27;24435;-78
2022/01/20 04:21:34;;;;;;;2.50;1.40;;;;;;;0.90;100.00;96465.41;5132428;27;24485;-77
2022/01/20 04:24:03;;;;;;;2.50;1.52;;;;;;;0.92;100.00;96461.94;5131527;27;24995;-77
2022/01/20 04:26:30;;;;;;;1.65;1.52;;;;;;;0.95;100.00;96463.63;5132212;27;24494;-76
2022/01/20 04:28:57;;;;;;;1.38;1.27;;;;;;;0.89;100.00;96476.44;5132796;27;24417;-77
2022/01/20 04:31:25;;;;;;;5.30;1.50;;;;;;;0.94;100.00;96467.88;5131595;28;24424;-77
2022/01/20 04:33:51;;;;;;;1.55;1.20;;;;;;;0.98;100.00;96476.34;5132018;28;24436;-77
2022/01/20 04:36:20;;;;;;;1.30;1.10;;;;;;;1.05;100.00;96483.03;5132068;28;24989;-78
2022/01/20 04:38:46;;;;;;;1.25;1.05;;;;;;;0.98;100.00;96476.34;5132049;28;24501;-78
2022/01/20 04:41:13;;;;;;;2.85;1.00;;;;;;;1.04;100.00;96476.25;5124866;28;24465;-78
2022/01/20 04:43:39;;;;;;;1.23;1.00;;;;;;;0.90;100.00;96470.50;5132352;28;24440;-78
2022/01/20 04:46:12;;;;;;;1.10;1.00;;;;;;;0.98;100.00;96478.88;5112586;28;24430;-78
2022/01/20 04:48:49;;;;;;;1.83;1.15;;;;;;;0.98;100.00;96462.75;5112176;28;25046;-77
2022/01/20 04:57:07;;;;;;;1.10;1.00;;;;;;;0.92;100.00;96477.25;5111391;28;24428;-77
2022/01/20 04:59:34;;;;;;;1.65;1.05;;;;;;;0.77;100.00;96468.97;5116688;28;24471;-78
2022/01/20 05:02:00;;;;;;;1.95;1.10;;;;;;;0.68;100.00;96477.59;5113684;28;24461;-78
2022/01/20 05:04:27;;;;;;;4.07;1.00;;;;;;;0.70;100.00;96478.41;5112609;28;25005;-77
2022/01/20 05:06:55;;;;;;;1.20;1.10;;;;;;;0.64;100.00;96478.50;5112463;28;24961;-77
2022/01/20 05:09:24;;;;;;;1.00;0.90;;;;;;;0.63;100.00;96470.00;5112571;28;24463;-77
2022/01/20 05:11:58;;;;;;;1.67;1.13;;;;;;;0.74;100.00;96467.28;5112392;28;24417;-76
2022/01/20 05:14:25;;;;;;;1.77;1.40;;;;;;;0.78;100.00;96470.66;5111616;28;24425;-78
2022/01/20 05:16:53;;;;;;;1.50;1.20;;;;;;;0.85;100.00;96468.00;5111136;28;24433;-77
2022/01/20 05:19:20;;;;;;;1.90;1.50;;;;;;;0.93;100.00;96467.91;5111367;28;24437;-77
2022/01/20 05:21:46;;;;;;;2.38;1.50;;;;;;;0.90;100.00;96471.34;5113313;28;24454;-78
2022/01/20 05:24:12;;;;;;;2.40;1.90;;;;;;;0.92;100.00;96471.31;5115679;28;24422;-77
2022/01/20 05:26:40;;;;;;;1.85;1.40;;;;;;;0.93;100.00;96463.66;5115745;28;24433;-78
2022/01/20 05:29:07;;;;;;;1.85;1.45;;;;;;;0.91;100.00;96461.97;5116622;28;24420;-77
2022/01/20 05:31:34;;;;;;;1.75;1.15;;;;;;;0.90;100.00;96475.59;5115744;28;24425;-78
2022/01/20 05:34:01;;;;;;;1.42;1.23;;;;;;;0.90;100.00;96473.91;5116270;28;24439;-77
2022/01/20 05:36:27;;;;;;;2.15;1.50;;;;;;;0.91;100.00;96464.53;5114052;28;24724;-77
2022/01/20 05:38:54;;;;;;;1.97;1.40;;;;;;;0.99;100.00;96466.97;5112853;28;24499;-77
2022/01/20 05:41:20;;;;;;;2.50;1.50;;;;;;;1.04;100.00;96460.97;5112990;28;24504;-77
2022/01/20 05:43:48;;;;;;;1.70;1.60;;;;;;;1.04;100.00;96472.84;5113856;28;24433;-78
2022/01/20 05:46:16;;;;;;;2.40;1.48;;;;;;;1.09;100.00;96465.97;5115124;28;24420;-77
2022/01/20 05:48:47;;;;;;;1.42;1.30;;;;;;;1.11;100.00;96461.69;5114516;28;24451;-77
2022/01/20 05:51:14;;;;;;;1.60;1.10;;;;;;;1.08;100.00;96461.75;5117486;28;24418;-78
2022/01/20 05:53:41;;;;;;;1.50;1.25;;;;;;;1.07;100.00;96471.09;5121187;28;24813;-77
2022/01/20 05:56:07;;;;;;;1.50;1.40;;;;;;;0.97;100.00;96469.56;5119504;28;24425;-78
2022/01/20 05:58:36;;;;;;;2.90;1.40;;;;;;;0.92;100.00;96472.16;5114006;28;24429;-78
2022/01/20 06:01:05;;;;;;;2.00;1.00;;;;;;;0.82;100.00;96474.88;5113261;28;24553;-77
2022/01/20 06:03:37;;;;;;;1.30;1.20;;;;;;;0.92;100.00;96468.75;5113638;28;24502;-77
2022/01/20 06:06:05;;;;;;;2.10;1.20;;;;;;;1.03;100.00;96484.75;5113224;28;24935;-77
2022/01/20 06:08:31;;;;;;;1.48;1.05;;;;;;;1.09;100.00;96482.13;5115780;27;24978;-76
2022/01/20 06:10:58;;;;;;;1.27;1.17;;;;;;;1.06;100.00;96484.72;5132049;27;24795;-79
2022/01/20 06:13:25;;;;;;;1.23;1.00;;;;;;;1.12;100.00;96482.09;5134907;27;24432;-78
2022/01/20 06:15:51;;;;;;;1.90;1.40;;;;;;;1.11;100.00;96477.88;5134741;27;24436;-78
2022/01/20 06:18:19;;;;;;;3.70;1.30;;;;;;;1.08;100.00;96482.16;5135177;27;24822;-78
2022/01/20 06:20:46;;;;;;;1.50;1.20;;;;;;;1.08;100.00;96482.16;5136011;27;24453;-77
2022/01/20 06:23:13;;;;;;;1.52;1.20;;;;;;;1.00;100.00;96489.91;5124486;27;24440;-77
2022/01/20 06:25:41;;;;;;;1.50;1.40;;;;;;;0.98;100.00;96489.09;5132360;27;24440;-77
2022/01/20 06:28:08;;;;;;;3.17;1.80;;;;;;;0.90;100.00;96478.16;5137429;27;24485;-78
2022/01/20 06:30:35;;;;;;;1.52;1.42;;;;;;;0.87;100.00;96479.03;5136678;27;24478;-77
2022/01/20 06:33:03;;;;;;;2.10;1.90;;;;;;;0.89;100.00;96486.66;5136447;27;24420;-77
2022/01/20 06:35:31;;;;;;;1.65;1.30;;;;;;;0.94;100.00;96490.00;5136782;27;24446;-77
2022/01/20 06:37:59;;;;;;;3.20;1.80;;;;;;;0.85;100.00;96506.25;5134148;27;24830;-78
2022/01/20 06:40:25;;;;;;;2.13;1.67;;;;;;;0.74;100.00;96495.34;5133610;27;24440;-77
2022/01/20 06:42:52;;;;;;;3.33;1.80;;;;;;;0.59;100.00;96495.53;5128213;27;24430;-73
2022/01/20 06:45:21;;;;;;;5.57;2.40;;;;;;;0.59;100.00;96496.38;5126472;27;24982;-80
2022/01/20 06:47:47;;;;;;;2.67;1.63;;;;;;;0.61;100.00;96487.00;5137203;27;24528;-78
2022/01/20 06:50:14;;;;;;;6.43;2.15;;;;;;;0.57;100.00;96479.44;5139735;27;24436;-79
2022/01/20 06:52:43;;;;;;;5.03;2.42;;;;;;;0.55;100.00;96484.53;5137358;27;24480;-79
2022/01/20 06:55:12;;;;;;;7.28;2.63;;;;;;;0.63;100.00;96494.63;5134080;27;24454;-78
2022/01/20 06:57:39;;;;;;;5.53;2.65;;;;;;;0.51;100.00;96495.63;5122755;27;24995;-75
2022/01/20 07:00:09;;;;;;;24.90;3.42;;;;;;;0.47;100.00;96496.53;5116545;28;24441;-78
2022/01/20 07:02:36;;;;;;;11.13;3.22;;;;;;;0.47;100.00;96494.81;5135077;27;24445;-79
2022/01/20 07:05:03;;;;;;;10.20;3.07;;;;;;;0.45;100.00;96494.00;5143517;27;24444;-80
2022/01/20 07:07:30;;;;;;;9.52;3.50;;;;;;;0.40;100.00;96502.56;5140447;27;24421;-78
2022/01/20 07:09:59;;;;;;;6.78;3.13;;;;;;;0.51;100.00;96500.72;5139070;27;25015;-78
2022/01/20 07:12:25;;;;;;;5.50;2.67;;;;;;;0.55;100.00;96494.72;5134570;27;24413;-78
2022/01/20 07:14:52;;;;;;;5.65;3.05;;;;;;;0.58;100.00;96501.50;5126837;27;24432;-79
2022/01/20 07:17:19;;;;;;;14.85;3.10;;;;;;;0.46;100.00;96510.97;5116097;28;24424;-79
2022/01/20 07:19:45;;;;;;;7.25;3.08;;;;;;;0.42;100.00;96514.44;5114968;28;24413;-79
2022/01/20 07:22:12;;;;;;;8.02;3.30;;;;;;;0.48;100.00;96521.16;5114189;28;24544;-79
2022/01/20 07:24:39;;;;;;;9.30;3.55;;;;;;;0.58;100.00;96521.91;5116699;28;24842;-77
2022/01/20 07:27:08;;;;;;;6.13;3.35;;;;;;;0.63;100.00;96530.31;5113387;28;24787;-77
2022/01/20 07:29:35;;;;;;;5.03;3.60;;;;;;;0.60;100.00;96533.78;5117960;27;25029;-79
2022/01/20 07:32:03;;;;;;;6.50;3.85;;;;;;;0.53;100.00;96532.16;5134926;27;24413;-79
2022/01/20 07:34:30;;;;;;;14.53;7.30;;;;;;;0.57;100.00;96533.81;5137032;27;24979;-80
2022/01/20 07:36:56;;;;;;;17.10;9.57;;;;;;;0.63;100.00;96538.84;5135996;27;24447;-79
2022/01/20 07:39:23;;;;;;;11.40;7.18;;;;;;;0.67;100.00;96542.19;5134315;27;24988;-79
2022/01/20 07:41:49;;;;;;;11.05;5.63;;;;;;;0.64;100.00;96552.44;5134423;27;24480;-79
2022/01/20 07:44:19;;;;;;;10.00;4.15;;;;;;;0.59;100.00;96555.00;5133954;27;24421;-79
2022/01/20 07:46:46;;;;;;;8.60;4.68;;;;;;;0.63;100.00;96553.25;5133345;27;24458;-77
2022/01/20 07:49:13;;;;;;;8.75;4.60;;;;;;;0.80;100.00;96559.03;5133198;27;24425;-78
2022/01/20 07:51:39;;;;;;;9.73;4.03;;;;;;;0.73;100.00;96568.44;5133893;27;24505;-78
2022/01/20 07:54:06;;;;;;;10.38;3.70;;;;;;;0.80;100.00;96579.41;5121476;27;24507;-79
2022/01/20 07:56:32;;;;;;;10.48;3.75;;;;;;;0.80;100.00;96578.56;5112561;28;24417;-78
2022/01/20 07:58:59;;;;;;;6.40;3.30;;;;;;;0.92;100.00;96573.31;5113247;28;24425;-77
2022/01/20 08:01:27;;;;;;;8.55;3.33;;;;;;;0.83;100.00;96576.84;5131804;27;24490;-77
2022/01/20 08:03:54;;;;;;;11.73;3.80;;;;;;;0.90;100.00;96575.06;5132126;27;24420;-78
2022/01/20 08:06:22;;;;;;;10.73;4.25;;;;;;;0.90;100.00;96575.91;5133950;27;24417;-78
2022/01/20 08:08:50;;;;;;;9.43;3.95;;;;;;;0.87;100.00;96575.09;5126365;27;24433;-77
2022/01/20 08:11:17;;;;;;;9.52;3.60;;;;;;;0.85;100.00;96581.91;5131634;27;24417;-77
2022/01/20 08:13:44;;;;;;;11.40;3.20;;;;;;;0.83;100.00;96576.00;5133002;27;24431;-77
2022/01/20 08:16:10;;;;;;;10.43;3.60;;;;;;;0.95;100.00;96580.94;5120846;27;24807;-79
2022/01/20 08:18:38;;;;;;;8.48;3.47;;;;;;;0.85;100.00;96574.25;5118453;28;24459;-79
2022/01/20 08:21:04;;;;;;;10.00;3.67;;;;;;;0.85;100.00;96589.56;5123180;28;24436;-79
2022/01/20 08:23:31;;;;;;;7.45;3.40;;;;;;;0.82;100.00;96593.00;5119970;28;24430;-79
2022/01/20 08:25:57;;;;;;;14.38;3.15;;;;;;;0.80;100.00;96593.88;5133224;27;24433;-78
2022/01/20 08:28:24;;;;;;;9.50;3.50;;;;;;;0.87;100.00;96590.41;5144444;27;24420;-78
2022/01/20 08:30:51;;;;;;;7.63;3.17;;;;;;;0.92;100.00;96586.06;5119333;27;24437;-78
2022/01/20 08:33:18;;;;;;;8.52;3.58;;;;;;;0.87;100.00;96587.84;5114317;28;24421;-78
2022/01/20 08:35:46;;;;;;;6.53;3.28;;;;;;;0.86;100.00;96587.00;5115975;28;24508;-78
2022/01/20 08:38:13;;;;;;;13.90;3.72;;;;;;;0.86;100.00;96592.09;5116074;28;24429;-78
2022/01/20 08:40:40;;;;;;;10.65;3.72;;;;;;;0.81;100.00;96590.47;5113777;28;24432;-78
2022/01/20 08:43:07;;;;;;;10.68;3.53;;;;;;;0.91;100.00;96589.50;5114751;28;24438;-78
2022/01/20 08:45:37;;;;;;;9.00;3.43;;;;;;;0.96;100.00;96586.03;5112445;28;25063;-77
2022/01/20 08:48:04;;;;;;;8.13;3.28;;;;;;;0.90;100.00;96580.16;5112085;28;24445;-77
2022/01/20 08:50:33;;;;;;;7.13;3.28;;;;;;;1.00;100.00;96573.22;5112502;28;24429;-77
2022/01/20 08:53:01;;;;;;;10.80;4.70;;;;;;;0.94;100.00;96574.16;5112240;28;24521;-77
2022/01/20 08:55:27;;;;;;;11.75;3.92;;;;;;;1.01;100.00;96564.75;5120801;28;24454;-77
2022/01/20 08:57:54;;;;;;;18.98;7.03;;;;;;;0.98;100.00;96591.13;5114775;28;24425;-77
2022/01/20 09:00:21;;;;;;;11.80;3.42;;;;;;;0.98;100.00;96597.94;5127020;27;24433;-77
2022/01/20 09:02:48;;;;;;;11.83;3.83;;;;;;;1.05;100.00;96597.84;5137342;27;24479;-77
2022/01/20 09:05:14;;;;;;;13.07;4.07;;;;;;;1.06;100.00;96612.28;5137771;27;24574;-78
2022/01/20 09:07:41;;;;;;;10.23;4.88;;;;;;;1.08;100.00;96618.22;5117784;27;24440;-77
2022/01/20 09:10:18;;;;;;;8.93;3.35;;;;;;;1.10;100.00;96625.84;5117492;28;24429;-77
2022/01/20 09:15:30;;;;;;;12.82;3.80;;;;;;;1.12;100.00;96637.72;5115404;28;24837;-78
2022/01/20 09:17:59;;;;;;;7.68;3.13;;;;;;;1.14;100.00;96635.13;5116409;28;24946;-78
2022/01/20 09:20:26;;;;;;;13.98;3.88;;;;;;;1.14;100.00;96633.41;5118081;28;24428;-78
2022/01/20 09:22:55;;;;;;;13.70;3.40;;;;;;;1.12;100.00;96637.72;5117431;28;24444;-77
2022/01/20 09:25:24;;;;;;;10.32;3.60;;;;;;;1.11;100.00;96625.84;5117786;28;24441;-78
2022/01/20 09:27:51;;;;;;;13.82;3.70;;;;;;;1.20;100.00;96643.56;5119700;28;24513;-78
2022/01/20 09:30:21;;;;;;;13.75;3.83;;;;;;;1.18;100.00;96644.44;5119146;28;24464;-78
2022/01/20 09:32:57;;;;;;;11.18;3.95;;;;;;;1.16;100.00;96635.97;5118177;28;24421;-77
2022/01/20 09:35:26;;;;;;;11.10;3.95;;;;;;;1.12;100.00;96637.72;5116282;28;24958;-78
2022/01/20 09:37:53;;;;;;;17.38;3.88;;;;;;;1.06;100.00;96632.69;5132524;27;24436;-77
2022/01/20 09:40:19;;;;;;;9.82;3.85;;;;;;;1.20;100.00;96625.72;5136817;27;24432;-78
2022/01/20 09:42:47;;;;;;;9.13;3.30;;;;;;;1.30;100.00;96629.00;5137443;27;24582;-78
2022/01/20 09:45:15;;;;;;;15.35;3.88;;;;;;;1.30;100.00;96636.66;5138027;27;24977;-78
2022/01/20 09:47:43;;;;;;;12.02;4.43;;;;;;;1.30;100.00;96635.78;5138731;27;24449;-78
2022/01/20 09:50:12;;;;;;;12.77;3.80;;;;;;;1.22;100.00;96628.22;5137234;27;24474;-77
2022/01/20 09:52:39;;;;;;;14.27;4.75;;;;;;;1.30;100.00;96631.56;5136365;27;24429;-78
2022/01/20 09:55:06;;;;;;;12.75;4.57;;;;;;;1.33;100.00;96638.31;5136492;27;24433;-78
2022/01/20 09:57:33;;;;;;;10.33;3.90;;;;;;;1.46;100.00;96624.53;5136722;27;25005;-78
2022/01/20 10:00:03;;;;;;;9.05;3.67;;;;;;;1.32;100.00;96629.81;5138009;27;24435;-78
2022/01/20 10:02:29;;;;;;;14.82;3.80;;;;;;;1.37;100.00;96620.41;5138547;27;24845;-80
2022/01/20 10:04:56;;;;;;;10.65;3.58;;;;;;;1.39;100.00;96610.16;5136530;27;24436;-78
2022/01/20 10:07:23;;;;;;;9.50;3.50;;;;;;;1.41;100.00;96604.19;5135596;27;24517;-78
2022/01/20 10:09:51;;;;;;;10.33;3.50;;;;;;;1.48;100.00;96614.28;5134207;27;24429;-78
2022/01/20 10:12:19;;;;;;;11.35;3.83;;;;;;;1.43;100.00;96602.44;5135263;27;24426;-77
2022/01/20 10:14:48;;;;;;;7.95;3.33;;;;;;;1.47;100.00;96610.91;5134610;27;24436;-78
2022/01/20 10:17:19;;;;;;;9.45;3.67;;;;;;;1.52;100.00;96626.13;5134325;27;24421;-77
2022/01/20 10:19:45;;;;;;;10.00;3.75;;;;;;;1.58;100.00;96632.00;5135630;27;24421;-78
2022/01/20 10:22:14;;;;;;;8.77;3.58;;;;;;;1.59;100.00;96643.06;5136543;27;24452;-79
2022/01/20 10:24:42;;;;;;;8.27;3.45;;;;;;;1.49;100.00;96651.72;5136118;27;24532;-79
2022/01/20 10:27:10;;;;;;;8.37;3.60;;;;;;;1.61;100.00;96654.97;5136517;27;24836;-80
2022/01/20 10:29:37;;;;;;;9.40;3.55;;;;;;;1.65;100.00;96641.28;5127539;27;25004;-80
2022/01/20 10:32:04;;;;;;;10.30;3.92;;;;;;;1.61;100.00;96647.28;5136668;27;24424;-79
2022/01/20 10:34:35;;;;;;;8.90;3.50;;;;;;;1.65;100.00;96653.22;5135816;27;24421;-79
2022/01/20 10:37:04;;;;;;;8.88;3.72;;;;;;;1.71;100.00;96642.91;5136569;27;24464;-78
2022/01/20 10:39:34;;;;;;;10.68;4.18;;;;;;;1.69;100.00;96648.03;5125483;27;24504;-75
2022/01/20 10:42:03;;;;;;;12.23;3.85;;;;;;;1.69;100.00;96644.63;5115033;28;24456;-75
2022/01/20 10:44:44;;;;;;;11.13;3.10;;;;;;;1.63;100.00;96645.59;5113931;28;24464;-76
2022/01/20 10:47:15;;;;;;;14.40;3.33;;;;;;;1.54;100.00;96645.69;5113485;28;24796;-77
2022/01/20 10:49:44;;;;;;;8.93;3.65;;;;;;;1.58;100.00;96644.78;5113734;28;24814;-75
2022/01/20 10:52:13;;;;;;;13.20;4.18;;;;;;;1.55;100.00;96644.81;5114173;28;24943;-76
2022/01/20 10:54:42;;;;;;;13.60;3.97;;;;;;;1.55;100.00;96643.97;5129741;27;24840;-76
2022/01/20 10:57:11;;;;;;;8.27;3.25;;;;;;;1.52;100.00;96641.47;5133637;27;24431;-75
2022/01/20 10:59:48;;;;;;;10.88;4.00;;;;;;;1.45;100.00;96636.44;5127674;27;24433;-76
2022/01/20 11:02:18;;;;;;;12.35;3.72;;;;;;;1.37;100.00;96633.16;5113101;28;24449;-77
2022/01/20 11:04:48;;;;;;;8.80;3.67;;;;;;;1.36;100.00;96636.56;5112820;28;24449;-77
2022/01/20 11:07:15;;;;;;;7.88;3.35;;;;;;;1.37;100.00;96634.84;5117901;27;24433;-77
2022/01/20 11:09:43;;;;;;;10.32;4.28;;;;;;;1.43;100.00;96642.44;5132913;27;24780;-77
2022/01/20 11:12:12;;;;;;;16.00;4.25;;;;;;;1.48;100.00;96644.91;5132393;27;24950;-77
2022/01/20 11:14:39;;;;;;;9.60;3.92;;;;;;;1.36;100.00;96639.09;5132049;27;24436;-77
2022/01/20 11:17:06;;;;;;;10.35;4.50;;;;;;;1.25;100.00;96633.28;5132309;27;24520;-77
2022/01/20 11:19:38;;;;;;;12.77;4.05;;;;;;;1.20;100.00;96628.25;5131967;27;24532;-77
2022/01/20 11:22:09;;;;;;;8.88;3.83;;;;;;;1.28;100.00;96633.25;5132747;27;24461;-77
2022/01/20 11:24:35;;;;;;;10.02;4.22;;;;;;;1.24;100.00;96636.72;5131910;27;25000;-77
2022/01/20 11:27:03;;;;;;;12.98;3.90;;;;;;;1.19;100.00;96624.03;5132115;27;24417;-77
2022/01/20 11:29:42;;;;;;;13.82;4.22;;;;;;;1.09;100.00;96629.25;5131980;27;24428;-77
2022/01/20 11:32:20;;;;;;;9.45;3.90;;;;;;;1.13;100.00;96620.69;5131984;27;24413;-77
2022/01/20 11:34:57;;;;;;;10.68;4.10;;;;;;;1.10;100.00;96623.28;5132294;27;24469;-77
2022/01/20 11:37:25;;;;;;;10.68;4.78;;;;;;;1.17;100.00;96619.78;5131777;27;24432;-77
2022/01/20 11:39:52;;;;;;;13.90;4.28;;;;;;;1.09;100.00;96616.50;5132192;27;24452;-76
2022/01/20 11:42:21;;;;;;;8.57;3.97;;;;;;;1.10;100.00;96629.22;5131503;27;24456;-76
2022/01/20 11:44:47;;;;;;;8.52;3.90;;;;;;;1.00;100.00;96617.44;5131389;27;24862;-76
2022/01/20 11:47:14;;;;;;;10.35;3.83;;;;;;;0.83;100.00;96629.56;5131862;27;24420;-76
2022/01/20 11:49:43;;;;;;;9.15;3.53;;;;;;;0.64;100.00;96618.72;5132113;27;24528;-76
2022/01/20 11:52:11;;;;;;;9.20;2.97;;;;;;;0.51;100.00;96617.97;5126200;27;24444;-76
2022/01/20 11:54:42;;;;;;;8.25;3.50;;;;;;;0.48;100.00;96618.00;5111563;28;24425;-76
2022/01/20 11:57:11;;;;;;;7.70;3.30;;;;;;;0.53;100.00;96610.31;5110903;28;24424;-77
2022/01/20 11:59:40;;;;;;;8.55;3.70;;;;;;;0.54;100.00;96602.66;5116705;27;24986;-76
2022/01/20 12:02:09;;;;;;;7.80;3.77;;;;;;;0.64;100.00;96605.97;5131206;27;21314;-76
2022/01/20 12:04:38;;;;;;;5.97;3.47;;;;;;;0.67;100.00;96598.28;5131786;27;24417;-76
2022/01/20 12:07:05;;;;;;;9.15;4.05;;;;;;;0.76;100.00;96590.53;5131437;27;24425;-76
2022/01/20 12:09:35;;;;;;;8.45;3.92;;;;;;;0.77;100.00;96581.16;5131172;27;24808;-76
2022/01/20 12:12:04;;;;;;;11.13;4.40;;;;;;;0.92;100.00;96580.97;5131342;27;24529;-76
2022/01/20 12:14:40;;;;;;;10.15;4.28;;;;;;;0.94;100.00;96574.16;5131235;27;24531;-76
2022/01/20 12:17:11;;;;;;;8.73;3.90;;;;;;;1.06;100.00;96579.09;5131339;27;24664;-76
2022/01/20 12:19:37;;;;;;;9.15;4.30;;;;;;;1.08;100.00;96576.56;5131508;27;24964;-74